Time;durP1;ratioP1;P1;durP2;ratioP2;P2;SDS_P1;SDS_P2;PMS_P1;PMS_P2;Temp;Humidity;BMP_temperature;BMP_pressure;BME280_temperature;BME280_humidity;BME280_pressure;Samples;Min_cycle;Max_cycle;Signal;HPM_P1;HPM_P2
2022/07/05 00:01:48;;;;;;;5.93;2.00;;;;;;;;;;5072726;28;20016;-70
2022/07/05 00:04:13;;;;;;;3.22;1.70;;;;;;;;;;5077414;28;20103;-70
2022/07/05 00:07:17;;;;;;;2.90;1.33;;;;;;;;;;5075781;28;20113;-71
2022/07/05 00:09:24;;;;;;;2.60;1.58;;;;;;;;;;5084989;28;20028;-71
2022/07/05 00:11:49;;;;;;;3.78;1.77;;;;;;;;;;5078796;28;20031;-71
2022/07/05 00:14:14;;;;;;;8.88;1.83;;;;;;;;;;5081622;28;20095;-71
2022/07/05 00:16:39;;;;;;;4.78;2.08;;;;;;;;;;5076948;28;20095;-72
2022/07/05 00:19:04;;;;;;;6.38;1.52;;;;;;;;;;5074446;28;20119;-70
2022/07/05 00:21:30;;;;;;;5.30;1.83;;;;;;;;;;5081835;28;20046;-71
2022/07/05 00:23:55;;;;;;;6.25;1.77;;;;;;;;;;5079959;28;20024;-71
2022/07/05 00:26:20;;;;;;;3.42;1.77;;;;;;;;;;5076003;28;20039;-70
2022/07/05 00:28:45;;;;;;;4.35;1.77;;;;;;;;;;5077327;28;20034;-72
2022/07/05 00:31:10;;;;;;;6.15;1.70;;;;;;;;;;5075790;28;20507;-70
2022/07/05 00:33:36;;;;;;;5.15;1.88;;;;;;;;;;5076846;28;20450;-70
2022/07/05 00:36:01;;;;;;;3.42;1.55;;;;;;;;;;5072845;28;20016;-70
2022/07/05 00:38:26;;;;;;;3.20;1.50;;;;;;;;;;5075018;28;20060;-71
2022/07/05 00:40:52;;;;;;;4.45;1.77;;;;;;;;;;5080266;28;20032;-70
2022/07/05 00:43:17;;;;;;;6.05;1.55;;;;;;;;;;5084369;28;20048;-71
2022/07/05 00:45:42;;;;;;;3.15;1.60;;;;;;;;;;5077899;28;20491;-70
2022/07/05 00:48:08;;;;;;;3.30;1.80;;;;;;;;;;5072977;28;20082;-70
2022/07/05 00:50:33;;;;;;;4.55;1.80;;;;;;;;;;5078825;28;20028;-71
2022/07/05 00:52:59;;;;;;;6.32;1.60;;;;;;;;;;5086313;28;20016;-70
2022/07/05 00:55:24;;;;;;;2.83;1.67;;;;;;;;;;5085785;28;20483;-70
2022/07/05 00:57:50;;;;;;;3.13;1.77;;;;;;;;;;5073476;28;20008;-71
2022/07/05 01:00:15;;;;;;;6.88;1.50;;;;;;;;;;5082882;28;20040;-71
2022/07/05 01:02:41;;;;;;;3.28;1.45;;;;;;;;;;5078256;28;20040;-71
2022/07/05 01:05:06;;;;;;;3.55;1.67;;;;;;;;;;5061431;28;20016;-71
2022/07/05 01:07:32;;;;;;;5.72;1.63;;;;;;;;;;5076084;28;20054;-71
2022/07/05 01:09:57;;;;;;;3.25;1.45;;;;;;;;;;5079188;28;20032;-70
2022/07/05 01:12:22;;;;;;;6.10;1.60;;;;;;;;;;5083507;28;20027;-70
2022/07/05 01:14:48;;;;;;;3.25;1.60;;;;;;;;;;5086314;28;20017;-72
2022/07/05 01:17:13;;;;;;;5.05;1.80;;;;;;;;;;5078870;28;20044;-71
2022/07/05 01:19:39;;;;;;;4.25;1.88;;;;;;;;;;5076879;28;20079;-71
2022/07/05 01:22:09;;;;;;;10.50;1.85;;;;;;;;;;5077105;28;20039;-70
2022/07/05 01:24:35;;;;;;;5.00;1.45;;;;;;;;;;5079629;28;20039;-71
2022/07/05 01:27:01;;;;;;;5.72;1.73;;;;;;;;;;5089253;28;20406;-70
2022/07/05 01:29:26;;;;;;;2.78;1.70;;;;;;;;;;5086070;28;20028;-70
2022/07/05 01:31:52;;;;;;;3.47;1.75;;;;;;;;;;5080379;28;20111;-71
2022/07/05 01:34:17;;;;;;;2.83;1.77;;;;;;;;;;5086272;28;20020;-71
2022/07/05 01:36:43;;;;;;;6.60;1.63;;;;;;;;;;5080802;28;20027;-71
2022/07/05 01:39:08;;;;;;;5.35;1.70;;;;;;;;;;5082002;28;20052;-71
2022/07/05 01:41:33;;;;;;;5.40;1.80;;;;;;;;;;5077520;28;20021;-71
2022/07/05 01:43:59;;;;;;;3.05;1.55;;;;;;;;;;5076334;28;20013;-70
2022/07/05 01:46:25;;;;;;;5.85;1.90;;;;;;;;;;5081050;28;20044;-71
2022/07/05 01:48:53;;;;;;;9.07;1.52;;;;;;;;;;5075783;28;20024;-70
2022/07/05 01:51:22;;;;;;;8.70;1.75;;;;;;;;;;5081403;28;20020;-70
2022/07/05 01:53:49;;;;;;;3.33;1.73;;;;;;;;;;5089075;28;20031;-71
2022/07/05 01:56:14;;;;;;;3.72;1.65;;;;;;;;;;5082463;28;20024;-70
2022/07/05 01:58:40;;;;;;;7.28;1.90;;;;;;;;;;5087992;28;20066;-71
2022/07/05 02:01:06;;;;;;;3.85;1.65;;;;;;;;;;5085742;28;20043;-71
2022/07/05 02:03:31;;;;;;;5.82;1.70;;;;;;;;;;5089131;28;20016;-70
2022/07/05 02:05:56;;;;;;;7.10;1.90;;;;;;;;;;5075254;28;20016;-70
2022/07/05 02:08:28;;;;;;;4.25;1.58;;;;;;;;;;5078966;28;20480;-70
2022/07/05 02:10:53;;;;;;;3.47;1.88;;;;;;;;;;5065966;28;20040;-70
2022/07/05 02:13:20;;;;;;;4.57;1.75;;;;;;;;;;5075424;28;20101;-71
2022/07/05 02:15:46;;;;;;;3.47;1.63;;;;;;;;;;5076109;28;20029;-71
2022/07/05 02:18:11;;;;;;;4.13;1.65;;;;;;;;;;5076446;28;20417;-71
2022/07/05 02:20:38;;;;;;;6.18;1.98;;;;;;;;;;5077629;28;20368;-71
2022/07/05 02:23:03;;;;;;;5.60;1.85;;;;;;;;;;5090137;28;20032;-70
2022/07/05 02:25:28;;;;;;;6.25;1.88;;;;;;;;;;5086331;28;20356;-71
2022/07/05 02:27:54;;;;;;;4.30;1.85;;;;;;;;;;5082692;28;20016;-70
2022/07/05 02:30:19;;;;;;;4.97;1.83;;;;;;;;;;5089092;28;20031;-70
2022/07/05 02:32:45;;;;;;;5.13;2.05;;;;;;;;;;5089178;28;20023;-71
2022/07/05 02:35:10;;;;;;;7.20;2.03;;;;;;;;;;5090944;28;20073;-70
2022/07/05 02:37:36;;;;;;;5.30;2.17;;;;;;;;;;5088642;28;20033;-69
2022/07/05 02:40:02;;;;;;;4.35;2.20;;;;;;;;;;5076582;28;20442;-70
2022/07/05 02:42:27;;;;;;;4.15;2.03;;;;;;;;;;5080361;28;20024;-70
2022/07/05 02:44:52;;;;;;;5.35;2.00;;;;;;;;;;5091143;28;20028;-70
2022/07/05 02:47:17;;;;;;;5.22;2.10;;;;;;;;;;5079922;28;20028;-70
2022/07/05 02:49:43;;;;;;;4.20;1.90;;;;;;;;;;5084327;28;20023;-70
2022/07/05 02:52:08;;;;;;;3.50;1.85;;;;;;;;;;5076791;28;20054;-70
2022/07/05 02:54:33;;;;;;;5.15;2.10;;;;;;;;;;5080642;28;20467;-70
2022/07/05 02:56:59;;;;;;;4.82;2.33;;;;;;;;;;5080101;28;20028;-70
2022/07/05 02:59:24;;;;;;;8.00;2.13;;;;;;;;;;5084000;28;20033;-70
2022/07/05 03:01:49;;;;;;;4.75;2.17;;;;;;;;;;5079550;28;20052;-71
2022/07/05 03:04:14;;;;;;;4.55;1.98;;;;;;;;;;5081713;28;20050;-70
2022/07/05 03:06:40;;;;;;;6.75;2.17;;;;;;;;;;5081839;28;20028;-70
2022/07/05 03:09:05;;;;;;;6.10;2.33;;;;;;;;;;5081002;28;20063;-70
2022/07/05 03:11:30;;;;;;;5.63;1.95;;;;;;;;;;5076825;28;20032;-70
2022/07/05 03:13:55;;;;;;;5.18;1.95;;;;;;;;;;5079098;28;20020;-70
2022/07/05 03:16:23;;;;;;;5.97;1.70;;;;;;;;;;5084449;28;20380;-70
2022/07/05 03:18:48;;;;;;;5.57;2.00;;;;;;;;;;5074645;28;20114;-70
2022/07/05 03:21:13;;;;;;;2.95;1.65;;;;;;;;;;5074514;28;20045;-70
2022/07/05 03:23:39;;;;;;;5.85;1.50;;;;;;;;;;5081013;28;20479;-70
2022/07/05 03:26:04;;;;;;;5.28;1.70;;;;;;;;;;5080337;28;20384;-70
2022/07/05 03:28:29;;;;;;;3.38;1.63;;;;;;;;;;5080029;28;20035;-70
2022/07/05 03:30:54;;;;;;;7.93;1.88;;;;;;;;;;5074189;28;20020;-70
2022/07/05 03:33:20;;;;;;;4.32;1.55;;;;;;;;;;5087254;28;20032;-70
2022/07/05 03:35:45;;;;;;;2.53;1.33;;;;;;;;;;5081780;28;20032;-70
2022/07/05 03:38:10;;;;;;;5.55;2.67;;;;;;;;;;5085481;28;20127;-70
2022/07/05 03:40:35;;;;;;;4.53;1.83;;;;;;;;;;5074553;28;20441;-70
2022/07/05 03:43:01;;;;;;;4.00;1.90;;;;;;;;;;5086627;28;20028;-70
2022/07/05 03:45:26;;;;;;;7.55;1.85;;;;;;;;;;5076520;28;20054;-70
2022/07/05 03:47:51;;;;;;;5.47;1.63;;;;;;;;;;5076664;28;20027;-70
2022/07/05 03:50:16;;;;;;;4.00;1.95;;;;;;;;;;5079349;28;20044;-70
2022/07/05 03:52:42;;;;;;;4.55;1.85;;;;;;;;;;5084779;28;20046;-70
2022/07/05 03:55:07;;;;;;;5.40;2.00;;;;;;;;;;5082209;28;20015;-70
2022/07/05 03:57:32;;;;;;;4.57;1.67;;;;;;;;;;5083870;28;20102;-70
2022/07/05 03:59:58;;;;;;;5.72;1.75;;;;;;;;;;5085325;28;20035;-70
2022/07/05 04:02:23;;;;;;;5.53;1.75;;;;;;;;;;5075417;28;20111;-70
2022/07/05 04:04:48;;;;;;;3.58;1.90;;;;;;;;;;5090919;28;20039;-70
2022/07/05 04:07:13;;;;;;;2.53;1.40;;;;;;;;;;5077749;28;20020;-70
2022/07/05 04:09:39;;;;;;;4.28;1.85;;;;;;;;;;5089235;28;20028;-70
2022/07/05 04:12:04;;;;;;;3.53;1.60;;;;;;;;;;5076612;28;20040;-70
2022/07/05 04:14:30;;;;;;;7.90;1.60;;;;;;;;;;5080556;28;20009;-70
2022/07/05 04:16:55;;;;;;;5.93;1.58;;;;;;;;;;5072877;28;20016;-70
2022/07/05 04:19:20;;;;;;;4.65;1.70;;;;;;;;;;5078382;28;20039;-70
2022/07/05 04:21:46;;;;;;;5.45;2.00;;;;;;;;;;5085624;28;20463;-70
2022/07/05 04:24:11;;;;;;;3.90;2.05;;;;;;;;;;5081343;28;20039;-70
2022/07/05 04:26:36;;;;;;;5.10;1.60;;;;;;;;;;5078276;28;20028;-70
2022/07/05 04:29:01;;;;;;;3.38;1.42;;;;;;;;;;5089952;28;20507;-70
2022/07/05 04:31:27;;;;;;;3.80;1.40;;;;;;;;;;5082685;28;20444;-70
2022/07/05 04:33:52;;;;;;;4.18;1.30;;;;;;;;;;5077457;28;20032;-70
2022/07/05 04:36:17;;;;;;;1.70;1.10;;;;;;;;;;5075465;28;20103;-70
2022/07/05 04:38:42;;;;;;;3.30;1.35;;;;;;;;;;5079186;28;20075;-70
2022/07/05 04:41:08;;;;;;;2.42;1.20;;;;;;;;;;5072861;28;20043;-70
2022/07/05 04:43:34;;;;;;;2.33;1.13;;;;;;;;;;5086257;28;20019;-71
2022/07/05 04:45:59;;;;;;;3.20;1.25;;;;;;;;;;5079235;28;20045;-70
2022/07/05 04:48:24;;;;;;;3.38;1.23;;;;;;;;;;5091932;28;20058;-70
2022/07/05 04:50:50;;;;;;;3.00;1.30;;;;;;;;;;5079341;28;20015;-70
2022/07/05 04:53:15;;;;;;;4.45;1.15;;;;;;;;;;5084265;28;20029;-70
2022/07/05 04:55:40;;;;;;;1.85;1.00;;;;;;;;;;5075966;28;20098;-70
2022/07/05 04:58:05;;;;;;;2.05;1.05;;;;;;;;;;5078234;28;20016;-70
2022/07/05 05:00:31;;;;;;;97.38;5.35;;;;;;;;;;5078356;28;20024;-71
2022/07/05 05:02:56;;;;;;;67.75;3.70;;;;;;;;;;5067706;28;20036;-71
2022/07/05 05:05:21;;;;;;;1.63;0.90;;;;;;;;;;5082337;28;20021;-71
2022/07/05 05:07:46;;;;;;;62.08;3.10;;;;;;;;;;5085072;28;20451;-71
2022/07/05 05:10:12;;;;;;;21.42;1.83;;;;;;;;;;5079554;28;20112;-71
2022/07/05 05:12:37;;;;;;;1.60;0.90;;;;;;;;;;5073997;28;20012;-70
2022/07/05 05:15:03;;;;;;;4.22;0.90;;;;;;;;;;5076586;28;20025;-71
2022/07/05 05:17:35;;;;;;;2.92;0.90;;;;;;;;;;5073716;28;20037;-71
2022/07/05 05:20:00;;;;;;;2.33;1.00;;;;;;;;;;5083891;28;20055;-71
2022/07/05 05:22:26;;;;;;;5.05;0.95;;;;;;;;;;5075973;28;20032;-72
2022/07/05 05:24:51;;;;;;;1.70;0.90;;;;;;;;;;5075513;28;20029;-72
2022/07/05 05:27:16;;;;;;;2.10;0.95;;;;;;;;;;5075330;28;20048;-71
2022/07/05 05:29:41;;;;;;;4.30;0.90;;;;;;;;;;5085605;28;20023;-71
2022/07/05 05:32:07;;;;;;;1.50;0.80;;;;;;;;;;5085152;28;20032;-72
2022/07/05 05:34:32;;;;;;;3.47;1.25;;;;;;;;;;5083773;28;20016;-72
2022/07/05 05:36:58;;;;;;;2.70;0.80;;;;;;;;;;5076444;28;20433;-72
2022/07/05 05:39:23;;;;;;;1.17;0.80;;;;;;;;;;5078544;28;20044;-72
2022/07/05 05:41:48;;;;;;;2.80;0.90;;;;;;;;;;5076189;28;20024;-72
2022/07/05 05:44:13;;;;;;;1.65;0.80;;;;;;;;;;5081464;28;20083;-72
2022/07/05 05:46:38;;;;;;;1.88;0.80;;;;;;;;;;5071819;28;20158;-72
2022/07/05 05:49:04;;;;;;;2.80;0.80;;;;;;;;;;5073818;28;20021;-72
2022/07/05 05:51:30;;;;;;;2.95;0.80;;;;;;;;;;5075837;28;20024;-72
2022/07/05 05:53:55;;;;;;;3.08;0.77;;;;;;;;;;5090817;28;20074;-72
2022/07/05 05:56:20;;;;;;;1.50;0.80;;;;;;;;;;5073278;28;20029;-72
2022/07/05 05:58:45;;;;;;;3.45;1.52;;;;;;;;;;5078231;28;20372;-72
2022/07/05 06:01:11;;;;;;;0.93;0.70;;;;;;;;;;5072892;28;20090;-72
2022/07/05 06:03:36;;;;;;;6.78;0.90;;;;;;;;;;5077471;28;20475;-72
2022/07/05 06:06:01;;;;;;;3.63;1.00;;;;;;;;;;5069390;28;20016;-73
2022/07/05 06:08:26;;;;;;;2.13;0.90;;;;;;;;;;5082384;28;20574;-72
2022/07/05 06:10:52;;;;;;;2.67;0.88;;;;;;;;;;5085202;28;20062;-72
2022/07/05 06:13:17;;;;;;;4.03;1.05;;;;;;;;;;5076103;28;20025;-72
2022/07/05 06:15:43;;;;;;;4.57;0.60;;;;;;;;;;5076941;28;20032;-72
2022/07/05 06:18:08;;;;;;;4.03;0.70;;;;;;;;;;5075316;28;20436;-73
2022/07/05 06:20:35;;;;;;;1.33;0.80;;;;;;;;;;5076264;28;20028;-72
2022/07/05 06:23:01;;;;;;;3.90;1.00;;;;;;;;;;5075951;28;20142;-72
2022/07/05 06:25:27;;;;;;;1.55;0.70;;;;;;;;;;5083553;28;20017;-72
2022/07/05 06:27:53;;;;;;;4.13;0.70;;;;;;;;;;5075349;28;20021;-72
2022/07/05 06:30:19;;;;;;;2.03;0.90;;;;;;;;;;5085381;28;20438;-72
2022/07/05 06:32:45;;;;;;;2.78;0.65;;;;;;;;;;5088221;28;20012;-72
2022/07/05 06:35:11;;;;;;;3.08;0.77;;;;;;;;;;5094409;28;20020;-73
2022/07/05 06:37:43;;;;;;;1.27;0.77;;;;;;;;;;5082153;28;20037;-72
2022/07/05 06:40:10;;;;;;;3.88;1.00;;;;;;;;;;5069134;28;20041;-72
2022/07/05 06:42:35;;;;;;;1.73;0.75;;;;;;;;;;5061350;28;20066;-72
2022/07/05 06:45:00;;;;;;;3.45;0.90;;;;;;;;;;5086286;28;20407;-72
2022/07/05 06:47:25;;;;;;;1.92;0.90;;;;;;;;;;5087957;28;20016;-72
2022/07/05 06:49:51;;;;;;;5.97;0.80;;;;;;;;;;5094014;28;20096;-72
2022/07/05 06:52:16;;;;;;;3.55;0.90;;;;;;;;;;5081544;28;20436;-72
2022/07/05 06:54:41;;;;;;;1.52;0.70;;;;;;;;;;5077900;28;20149;-72
2022/07/05 06:57:06;;;;;;;2.95;0.93;;;;;;;;;;5074924;28;20032;-72
2022/07/05 06:59:31;;;;;;;0.98;0.63;;;;;;;;;;5077472;28;20028;-72
2022/07/05 07:01:57;;;;;;;3.30;0.80;;;;;;;;;;5084724;28;20024;-72
2022/07/05 07:04:22;;;;;;;1.83;0.80;;;;;;;;;;5076879;28;20035;-72
2022/07/05 07:06:47;;;;;;;2.22;0.88;;;;;;;;;;5088935;28;20107;-72
2022/07/05 07:09:18;;;;;;;5.82;1.08;;;;;;;;;;5086423;28;20020;-72
2022/07/05 07:11:44;;;;;;;1.75;0.85;;;;;;;;;;5092087;28;20039;-72
2022/07/05 07:14:10;;;;;;;4.45;1.17;;;;;;;;;;5081926;28;20036;-72
2022/07/05 07:16:35;;;;;;;1.98;0.90;;;;;;;;;;5068681;28;20024;-72
2022/07/05 07:19:00;;;;;;;3.53;0.90;;;;;;;;;;5079352;28;20099;-72
2022/07/05 07:21:25;;;;;;;3.25;0.80;;;;;;;;;;5082057;28;20130;-72
2022/07/05 07:23:51;;;;;;;3.35;0.90;;;;;;;;;;5073522;28;20423;-73
2022/07/05 07:26:16;;;;;;;4.72;1.20;;;;;;;;;;5078760;28;20850;-72
2022/07/05 07:28:41;;;;;;;5.13;1.25;;;;;;;;;;5076284;28;20452;-73
2022/07/05 07:31:07;;;;;;;4.97;1.15;;;;;;;;;;5093018;28;20020;-72
2022/07/05 07:33:33;;;;;;;5.35;1.40;;;;;;;;;;5080599;28;20417;-72
2022/07/05 07:35:58;;;;;;;6.93;1.40;;;;;;;;;;5091758;28;20031;-73
2022/07/05 07:38:24;;;;;;;4.03;1.30;;;;;;;;;;5091653;28;20474;-72
2022/07/05 07:40:49;;;;;;;5.57;1.00;;;;;;;;;;5074764;28;20107;-72
2022/07/05 07:43:15;;;;;;;2.17;0.82;;;;;;;;;;5079734;28;20079;-72
2022/07/05 07:45:40;;;;;;;8.48;1.10;;;;;;;;;;5077511;28;20070;-72
2022/07/05 07:48:05;;;;;;;5.15;1.00;;;;;;;;;;5079176;28;20099;-72
2022/07/05 07:50:30;;;;;;;3.33;1.10;;;;;;;;;;5076956;28;20139;-72
2022/07/05 07:52:55;;;;;;;5.60;1.25;;;;;;;;;;5079978;28;20070;-72
2022/07/05 07:55:21;;;;;;;4.88;1.35;;;;;;;;;;5083971;28;20013;-72
2022/07/05 07:57:46;;;;;;;8.13;1.52;;;;;;;;;;5081111;28;20039;-72
2022/07/05 08:00:11;;;;;;;5.85;1.40;;;;;;;;;;5083621;28;20421;-72
2022/07/05 08:02:37;;;;;;;6.30;1.33;;;;;;;;;;5077457;28;20443;-72
2022/07/05 08:05:03;;;;;;;4.20;1.13;;;;;;;;;;5083182;28;20101;-72
2022/07/05 08:07:28;;;;;;;4.10;1.05;;;;;;;;;;5077401;28;20030;-72
2022/07/05 08:09:53;;;;;;;5.95;1.25;;;;;;;;;;5082270;28;20036;-72
2022/07/05 08:12:19;;;;;;;6.25;1.25;;;;;;;;;;5086305;28;20031;-72
2022/07/05 08:14:45;;;;;;;5.03;1.35;;;;;;;;;;5080114;28;20487;-72
2022/07/05 08:17:11;;;;;;;4.75;1.02;;;;;;;;;;5080230;28;20020;-72
2022/07/05 08:22:20;;;;;;;4.22;1.23;;;;;;;;;;5072822;28;20030;-72
2022/07/05 08:24:46;;;;;;;5.85;1.30;;;;;;;;;;5078187;28;20110;-72
2022/07/05 08:27:11;;;;;;;9.57;1.48;;;;;;;;;;5074106;28;20023;-72
2022/07/05 08:29:37;;;;;;;4.13;1.40;;;;;;;;;;5075050;28;20078;-72
2022/07/05 08:32:02;;;;;;;4.30;1.17;;;;;;;;;;5082778;28;20036;-73
2022/07/05 08:34:27;;;;;;;5.80;1.25;;;;;;;;;;5085460;28;20021;-72
2022/07/05 08:36:53;;;;;;;4.43;1.23;;;;;;;;;;5090694;28;20040;-73
2022/07/05 08:39:18;;;;;;;4.80;1.23;;;;;;;;;;5084513;28;20048;-72
2022/07/05 08:41:48;;;;;;;6.15;1.30;;;;;;;;;;5086684;28;20033;-72
2022/07/05 08:44:15;;;;;;;8.63;1.35;;;;;;;;;;5083643;28;20013;-72
2022/07/05 08:46:41;;;;;;;4.75;1.42;;;;;;;;;;5078954;28;20028;-73
2022/07/05 08:49:07;;;;;;;6.82;1.73;;;;;;;;;;5051370;28;20033;-72
2022/07/05 08:51:33;;;;;;;5.88;1.23;;;;;;;;;;5064131;28;20020;-72
2022/07/05 08:53:58;;;;;;;5.00;1.30;;;;;;;;;;5064651;28;20020;-72
2022/07/05 08:56:23;;;;;;;3.17;1.10;;;;;;;;;;5082082;28;20035;-73
2022/07/05 08:58:49;;;;;;;3.95;1.17;;;;;;;;;;5084560;28;20028;-72
2022/07/05 09:01:15;;;;;;;8.25;1.90;;;;;;;;;;5083613;28;20035;-72
2022/07/05 09:03:47;;;;;;;7.20;1.73;;;;;;;;;;5080976;28;20020;-73
2022/07/05 09:06:15;;;;;;;5.35;1.80;;;;;;;;;;5079640;28;20017;-73
2022/07/05 09:08:40;;;;;;;5.10;1.33;;;;;;;;;;5081068;28;20061;-72
2022/07/05 09:11:07;;;;;;;5.32;1.48;;;;;;;;;;5080149;28;20021;-72
2022/07/05 09:13:36;;;;;;;6.70;1.55;;;;;;;;;;5085190;28;20031;-72
2022/07/05 09:16:02;;;;;;;5.70;1.58;;;;;;;;;;5087939;28;20348;-72
2022/07/05 09:18:44;;;;;;;3.67;1.10;;;;;;;;;;5075603;28;20020;-72
2022/07/05 09:21:25;;;;;;;5.85;1.60;;;;;;;;;;5087855;28;20051;-72
2022/07/05 09:23:58;;;;;;;7.85;1.70;;;;;;;;;;5085708;28;20499;-72
2022/07/05 09:26:43;;;;;;;3.78;1.20;;;;;;;;;;5075064;28;20121;-72
2022/07/05 09:29:13;;;;;;;4.25;1.60;;;;;;;;;;5071208;28;20089;-72
2022/07/05 09:31:39;;;;;;;5.22;1.30;;;;;;;;;;5069855;28;20472;-72
2022/07/05 09:34:06;;;;;;;4.18;1.13;;;;;;;;;;5075406;28;20032;-72
2022/07/05 09:36:49;;;;;;;5.32;1.38;;;;;;;;;;5073694;28;20031;-72
2022/07/05 09:39:14;;;;;;;8.98;1.45;;;;;;;;;;5078386;28;20045;-72
2022/07/05 09:41:40;;;;;;;4.97;1.30;;;;;;;;;;5076681;28;20432;-72
2022/07/05 09:44:05;;;;;;;5.97;1.80;;;;;;;;;;5085661;28;20099;-72
2022/07/05 09:46:31;;;;;;;5.63;1.50;;;;;;;;;;5075616;28;20028;-72
2022/07/05 09:48:56;;;;;;;4.97;1.20;;;;;;;;;;5076102;28;20035;-72
2022/07/05 09:51:21;;;;;;;5.88;1.40;;;;;;;;;;5076668;28;20032;-73
2022/07/05 09:53:46;;;;;;;4.20;1.17;;;;;;;;;;5075899;28;20487;-72
2022/07/05 09:56:12;;;;;;;5.03;1.50;;;;;;;;;;5085352;28;20032;-72
2022/07/05 09:58:37;;;;;;;8.05;2.03;;;;;;;;;;5059402;28;20032;-73
2022/07/05 10:01:22;;;;;;;6.38;1.30;;;;;;;;;;5084355;28;20047;-72
2022/07/05 10:03:54;;;;;;;6.43;1.30;;;;;;;;;;5087352;28;20032;-72
2022/07/05 10:06:19;;;;;;;5.40;1.15;;;;;;;;;;5088266;28;20040;-72
2022/07/05 10:08:46;;;;;;;9.13;1.38;;;;;;;;;;5074152;28;20047;-72
2022/07/05 10:11:11;;;;;;;6.05;1.30;;;;;;;;;;5076248;28;20054;-72
2022/07/05 10:13:37;;;;;;;5.30;1.55;;;;;;;;;;5084748;28;20024;-72
2022/07/05 10:16:03;;;;;;;5.38;1.45;;;;;;;;;;5081208;28;20502;-72
2022/07/05 10:18:31;;;;;;;5.85;1.35;;;;;;;;;;5072325;28;20021;-72
2022/07/05 10:20:59;;;;;;;3.78;1.10;;;;;;;;;;5068326;28;20045;-72
2022/07/05 10:23:24;;;;;;;5.88;1.40;;;;;;;;;;5077517;28;20028;-72
2022/07/05 10:25:50;;;;;;;5.70;1.55;;;;;;;;;;5080765;28;20066;-72
2022/07/05 10:28:16;;;;;;;5.43;1.35;;;;;;;;;;5077334;28;20032;-73
2022/07/05 10:30:45;;;;;;;5.28;1.20;;;;;;;;;;5089377;28;20414;-73
2022/07/05 10:33:11;;;;;;;3.72;1.10;;;;;;;;;;5081755;28;20103;-72
2022/07/05 10:35:36;;;;;;;4.28;1.20;;;;;;;;;;5079574;28;20111;-72
2022/07/05 10:38:02;;;;;;;9.57;1.25;;;;;;;;;;5076679;28;20039;-72
2022/07/05 10:40:29;;;;;;;5.15;1.10;;;;;;;;;;5075943;28;20454;-72
2022/07/05 10:42:55;;;;;;;4.18;1.25;;;;;;;;;;5072244;28;20056;-72
2022/07/05 10:45:22;;;;;;;5.60;2.00;;;;;;;;;;5074897;28;20036;-73
2022/07/05 10:48:10;;;;;;;11.63;1.33;;;;;;;;;;5077223;28;20015;-73
2022/07/05 10:50:45;;;;;;;5.07;1.30;;;;;;;;;;5063449;28;20044;-72
2022/07/05 10:53:10;;;;;;;5.20;1.42;;;;;;;;;;5081255;28;20041;-72
2022/07/05 10:55:54;;;;;;;6.82;1.23;;;;;;;;;;5077311;28;20349;-72
2022/07/05 10:58:20;;;;;;;4.40;1.10;;;;;;;;;;5079387;28;20025;-73
2022/07/05 11:00:46;;;;;;;7.75;1.23;;;;;;;;;;5082407;28;20044;-72
2022/07/05 11:03:29;;;;;;;5.50;1.15;;;;;;;;;;5081652;28;20027;-72
2022/07/05 11:05:54;;;;;;;;;;;;;;;;;;5072443;28;20038;-72
2022/07/05 11:08:20;;;;;;;7.15;1.67;;;;;;;;;;5080016;28;19904;-72
2022/07/05 11:11:04;;;;;;;3.80;1.27;;;;;;;;;;5081230;28;20115;-72
2022/07/05 11:13:36;;;;;;;9.18;1.40;;;;;;;;;;5079593;28;20407;-73
2022/07/05 11:16:19;;;;;;;6.90;1.30;;;;;;;;;;5076217;28;20037;-72
2022/07/05 11:18:44;;;;;;;4.43;1.10;;;;;;;;;;5068523;28;20483;-72
2022/07/05 11:21:36;;;;;;;5.88;1.20;;;;;;;;;;5076897;28;20079;-72
2022/07/05 11:24:27;;;;;;;4.28;1.00;;;;;;;;;;5058021;28;20052;-73
2022/07/05 11:26:53;;;;;;;6.57;1.45;;;;;;;;;;5069310;28;20040;-73
2022/07/05 11:29:37;;;;;;;3.45;1.30;;;;;;;;;;5074234;28;20427;-72
2022/07/05 11:32:06;;;;;;;3.78;1.17;;;;;;;;;;5085719;28;20020;-73
2022/07/05 11:34:34;;;;;;;4.13;1.30;;;;;;;;;;5086844;28;20024;-72
2022/07/05 11:37:24;;;;;;;6.72;1.60;;;;;;;;;;5083106;28;20427;-72
2022/07/05 11:40:10;;;;;;;3.78;1.15;;;;;;;;;;5076267;28;20052;-73
2022/07/05 11:42:45;;;;;;;5.57;1.27;;;;;;;;;;5064164;28;20485;-72
2022/07/05 11:45:11;;;;;;;3.53;1.05;;;;;;;;;;5075799;28;20090;-73
2022/07/05 11:47:37;;;;;;;4.47;1.08;;;;;;;;;;5070597;28;20456;-72
2022/07/05 11:50:02;;;;;;;5.07;1.10;;;;;;;;;;5075490;28;20379;-72
2022/07/05 11:52:28;;;;;;;5.32;0.98;;;;;;;;;;5068943;28;20407;-72
2022/07/05 11:54:54;;;;;;;4.25;1.10;;;;;;;;;;5082120;28;20032;-72
2022/07/05 11:57:19;;;;;;;3.53;1.10;;;;;;;;;;5083499;28;20132;-72
2022/07/05 11:59:45;;;;;;;3.83;0.93;;;;;;;;;;5078827;28;20050;-72
2022/07/05 12:02:10;;;;;;;5.72;1.10;;;;;;;;;;5082253;28;20036;-72
2022/07/05 12:04:35;;;;;;;5.10;1.20;;;;;;;;;;5082616;28;20099;-72
2022/07/05 12:07:01;;;;;;;3.97;1.25;;;;;;;;;;5071895;28;20534;-72
2022/07/05 12:15:06;;;;;;;2.92;0.88;;;;;;;;;;5066264;28;20056;-72
2022/07/05 12:17:33;;;;;;;3.42;1.02;;;;;;;;;;5084136;28;20016;-72
2022/07/05 12:19:58;;;;;;;4.97;1.10;;;;;;;;;;5071665;28;20059;-72
2022/07/05 12:22:42;;;;;;;3.03;1.00;;;;;;;;;;5075125;28;20454;-72
2022/07/05 12:25:09;;;;;;;7.13;1.17;;;;;;;;;;5076607;28;20035;-73
2022/07/05 12:27:36;;;;;;;5.78;1.30;;;;;;;;;;5083939;28;20441;-72
2022/07/05 12:30:03;;;;;;;2.83;0.80;;;;;;;;;;5066118;28;20491;-72
2022/07/05 12:32:29;;;;;;;3.28;0.95;;;;;;;;;;5072940;28;20025;-72
2022/07/05 12:34:56;;;;;;;3.67;0.95;;;;;;;;;;5076288;28;20132;-72
2022/07/05 12:37:22;;;;;;;3.70;1.35;;;;;;;;;;5084074;28;20016;-72
2022/07/05 12:39:48;;;;;;;2.78;0.88;;;;;;;;;;5080901;28;20044;-72
2022/07/05 12:42:32;;;;;;;2.35;0.80;;;;;;;;;;5065266;28;20035;-73
2022/07/05 12:45:10;;;;;;;5.47;1.00;;;;;;;;;;5078003;28;20030;-72
2022/07/05 12:47:37;;;;;;;2.50;0.82;;;;;;;;;;5056966;28;20116;-72
2022/07/05 12:50:02;;;;;;;3.17;0.90;;;;;;;;;;5068999;28;20031;-73
2022/07/05 12:52:27;;;;;;;4.38;1.10;;;;;;;;;;5060163;28;20422;-72
2022/07/05 12:58:02;;;;;;;4.85;1.00;;;;;;;;;;5066996;28;20051;-72
2022/07/05 13:00:27;;;;;;;4.53;1.02;;;;;;;;;;5085465;28;20475;-72
2022/07/05 13:02:53;;;;;;;3.40;1.02;;;;;;;;;;5083958;28;20028;-73
2022/07/05 13:05:19;;;;;;;3.03;1.15;;;;;;;;;;5077557;28;20021;-72
2022/07/05 13:07:45;;;;;;;6.15;1.10;;;;;;;;;;5076361;28;20472;-72
2022/07/05 13:10:16;;;;;;;3.05;1.00;;;;;;;;;;5069945;28;20059;-73
2022/07/05 13:12:41;;;;;;;4.13;1.20;;;;;;;;;;5072824;28;20015;-73
2022/07/05 13:15:07;;;;;;;2.75;0.80;;;;;;;;;;5082151;28;20028;-73
2022/07/05 13:17:32;;;;;;;3.67;1.15;;;;;;;;;;5084452;28;20099;-73
2022/07/05 13:19:59;;;;;;;2.80;0.98;;;;;;;;;;5082492;28;20129;-73
2022/07/05 13:22:24;;;;;;;3.63;1.10;;;;;;;;;;5085597;28;20111;-72
2022/07/05 13:24:50;;;;;;;3.72;0.88;;;;;;;;;;5077138;28;20444;-72
2022/07/05 13:27:15;;;;;;;2.63;0.85;;;;;;;;;;5076749;28;20055;-72
2022/07/05 13:29:40;;;;;;;4.80;1.00;;;;;;;;;;5073614;28;20020;-72
2022/07/05 13:32:06;;;;;;;2.55;1.00;;;;;;;;;;5071894;28;20116;-73
2022/07/05 13:34:31;;;;;;;5.35;1.38;;;;;;;;;;5080835;28;20020;-72
2022/07/05 13:36:57;;;;;;;3.65;1.00;;;;;;;;;;5080959;28;20158;-73
2022/07/05 13:39:23;;;;;;;3.65;1.10;;;;;;;;;;5086445;28;20384;-72
2022/07/05 13:41:48;;;;;;;3.30;1.02;;;;;;;;;;5084946;28;20059;-72
2022/07/05 13:44:14;;;;;;;5.53;1.13;;;;;;;;;;5088065;28;20464;-73
2022/07/05 13:46:39;;;;;;;3.25;1.08;;;;;;;;;;5078389;28;20451;-73
2022/07/05 13:49:04;;;;;;;4.20;1.13;;;;;;;;;;5091080;28;20024;-72
2022/07/05 13:51:29;;;;;;;4.97;1.05;;;;;;;;;;5083165;28;20467;-72
2022/07/05 13:53:55;;;;;;;3.13;1.10;;;;;;;;;;5084805;28;20430;-72
2022/07/05 13:56:21;;;;;;;3.22;0.95;;;;;;;;;;5077061;28;20037;-73
2022/07/05 13:58:46;;;;;;;6.13;1.10;;;;;;;;;;5073379;28;20373;-73
2022/07/05 14:01:11;;;;;;;4.95;1.00;;;;;;;;;;5082741;28;20059;-72
2022/07/05 14:03:36;;;;;;;4.80;1.13;;;;;;;;;;5087577;28;20027;-73
2022/07/05 14:06:02;;;;;;;2.85;0.95;;;;;;;;;;5077809;28;20040;-73
2022/07/05 14:08:27;;;;;;;2.72;0.80;;;;;;;;;;5076023;28;20484;-73
2022/07/05 14:10:57;;;;;;;6.28;1.10;;;;;;;;;;5075298;28;20103;-73
2022/07/05 14:13:23;;;;;;;3.65;1.20;;;;;;;;;;5079976;28;20028;-73
2022/07/05 14:15:48;;;;;;;5.47;1.33;;;;;;;;;;5080438;28;20360;-72
2022/07/05 14:18:15;;;;;;;7.18;1.00;;;;;;;;;;5080425;28;20422;-73
2022/07/05 14:20:40;;;;;;;3.45;0.90;;;;;;;;;;5064667;28;20044;-72
2022/07/05 14:23:05;;;;;;;4.22;0.85;;;;;;;;;;5079789;28;20033;-73
2022/07/05 14:25:31;;;;;;;2.17;0.80;;;;;;;;;;5080004;28;20362;-73
2022/07/05 14:27:56;;;;;;;2.17;0.88;;;;;;;;;;5081153;28;20063;-72
2022/07/05 14:30:23;;;;;;;3.88;0.90;;;;;;;;;;5076695;28;20040;-72
2022/07/05 14:32:48;;;;;;;3.05;1.13;;;;;;;;;;5079679;28;20023;-72
2022/07/05 14:35:13;;;;;;;3.92;0.90;;;;;;;;;;5081446;28;20111;-73
2022/07/05 14:37:39;;;;;;;3.13;1.00;;;;;;;;;;5082434;28;20025;-73
2022/07/05 14:40:06;;;;;;;3.40;0.95;;;;;;;;;;5080831;28;20135;-73
2022/07/05 14:42:31;;;;;;;4.30;1.20;;;;;;;;;;5077105;28;20055;-72
2022/07/05 14:44:57;;;;;;;5.20;1.02;;;;;;;;;;5078639;28;20020;-72
2022/07/05 14:47:22;;;;;;;1.95;0.75;;;;;;;;;;5076121;28;20345;-72
2022/07/05 14:49:47;;;;;;;2.20;0.80;;;;;;;;;;5070638;28;20387;-73
2022/07/05 14:52:12;;;;;;;2.67;0.98;;;;;;;;;;5071544;28;20028;-73